createdAt,value
2022-10-28T00:00:03.132Z,78
2022-10-28T00:20:03.056Z,78
2022-10-28T00:40:02.508Z,78
2022-10-28T01:00:03.203Z,78
2022-10-28T01:20:02.867Z,79
2022-10-28T01:40:02.371Z,79
2022-10-28T02:00:02.654Z,79
2022-10-28T02:20:03.148Z,79
2022-10-28T02:40:02.743Z,80
2022-10-28T03:00:03.137Z,80
2022-10-28T03:20:02.782Z,80
2022-10-28T03:40:03.503Z,79
2022-10-28T04:00:03.054Z,79
2022-10-28T04:20:02.890Z,79
2022-10-28T04:40:02.395Z,78
2022-10-28T05:00:02.708Z,78
2022-10-28T05:20:02.902Z,78
2022-10-28T05:40:02.256Z,78
2022-10-28T06:00:02.814Z,78
2022-10-28T06:20:01.079Z,79
2022-10-28T06:40:01.644Z,79
2022-10-28T07:00:02.756Z,80
2022-10-28T07:20:02.368Z,80
2022-10-28T07:40:02.777Z,81
2022-10-28T08:00:03.303Z,81
2022-10-28T08:20:03.125Z,80
2022-10-28T08:40:02.572Z,79
2022-10-28T09:00:03.046Z,76
2022-10-28T09:20:02.506Z,73
2022-10-28T09:40:03.196Z,71
2022-10-28T10:00:02.666Z,67
2022-10-28T10:20:03.259Z,64
2022-10-28T10:40:02.752Z,61
2022-10-28T11:00:03.137Z,60
2022-10-28T11:20:02.909Z,59
2022-10-28T11:40:02.359Z,58
2022-10-28T12:00:02.956Z,56
2022-10-28T12:20:02.782Z,56
2022-10-28T12:40:03.256Z,56
2022-10-28T13:00:02.890Z,58
2022-10-28T13:20:02.668Z,58
2022-10-28T13:40:03.039Z,58
2022-10-28T14:00:02.580Z,58
2022-10-28T14:20:02.414Z,59
2022-10-28T14:40:02.998Z,59
2022-10-28T15:00:02.696Z,60
2022-10-28T15:20:02.740Z,61
2022-10-28T15:40:09.943Z,63
2022-10-28T16:00:02.728Z,64
2022-10-28T16:20:02.912Z,65
2022-10-28T16:40:02.479Z,67
2022-10-28T17:00:02.748Z,68
2022-10-28T17:20:02.592Z,68
2022-10-28T17:40:02.855Z,69
2022-10-28T18:00:04.244Z,70
2022-10-28T18:20:02.647Z,71
2022-10-28T18:40:02.892Z,72
2022-10-28T19:00:19.884Z,72
2022-10-28T19:20:03.545Z,72
2022-10-28T19:40:02.819Z,72
2022-10-28T20:00:03.120Z,72
2022-10-28T20:20:02.444Z,73
2022-10-28T20:40:07.733Z,73
2022-10-28T21:00:03.133Z,73
2022-10-28T21:20:02.691Z,73
2022-10-28T21:40:03.078Z,74
2022-10-28T22:00:02.472Z,74
2022-10-28T22:20:02.996Z,74
2022-10-28T22:40:02.338Z,75
2022-10-28T23:00:03.827Z,76
2022-10-28T23:20:02.277Z,76
2022-10-28T23:40:02.906Z,76
